createdAt,value
2018-06-29T00:00:12.418Z,50.90
2018-06-29T00:01:17.410Z,51.00
2018-06-29T00:02:20.899Z,51.20
2018-06-29T00:03:24.287Z,51.60
2018-06-29T00:04:27.668Z,51.20
2018-06-29T00:05:33.188Z,51.20
2018-06-29T00:06:36.599Z,51.20
2018-06-29T00:07:40.002Z,51.30
2018-06-29T00:09:46.468Z,51.40
2018-06-29T00:10:50.997Z,51.50
2018-06-29T00:11:54.412Z,52.00
2018-06-29T00:12:57.819Z,51.50
2018-06-29T00:14:01.216Z,51.70
2018-06-29T00:15:05.272Z,51.80
2018-06-29T00:16:10.293Z,51.90
2018-06-29T00:17:13.720Z,52.00
2018-06-29T00:18:17.123Z,52.00
2018-06-29T00:19:20.512Z,52.10
2018-06-29T00:20:24.911Z,52.20
2018-06-29T00:21:29.292Z,52.20
2018-06-29T00:22:32.771Z,52.30
2018-06-29T00:23:36.171Z,52.50
2018-06-29T00:24:39.598Z,52.50
2018-06-29T00:26:46.999Z,52.60
2018-06-29T00:28:53.475Z,52.80
2018-06-29T00:29:56.863Z,52.90
2018-06-29T00:31:01.857Z,52.90
2018-06-29T00:33:08.351Z,53.10
2018-06-29T00:34:11.891Z,53.10
2018-06-29T00:35:16.275Z,53.20
2018-06-29T00:36:21.097Z,53.20
2018-06-29T00:37:24.811Z,53.20
2018-06-29T00:38:28.131Z,53.30
2018-06-29T00:39:31.542Z,53.40
2018-06-29T00:40:35.979Z,53.40
2018-06-29T00:41:39.376Z,53.60
2018-06-29T00:42:42.767Z,53.70
2018-06-29T00:43:46.159Z,53.80
2018-06-29T00:44:49.560Z,53.80
2018-06-29T00:46:57.028Z,54.20
2018-06-29T00:48:00.410Z,54.00
2018-06-29T00:49:03.803Z,54.20
2018-06-29T00:50:08.213Z,54.20
2018-06-29T00:51:12.811Z,54.30
2018-06-29T00:52:16.223Z,54.40
2018-06-29T00:53:19.718Z,54.50
2018-06-29T00:54:23.011Z,54.50
2018-06-29T00:55:27.552Z,54.60
2018-06-29T00:56:30.956Z,54.80
2018-06-29T00:57:34.335Z,54.80
2018-06-29T00:58:37.723Z,54.80
2018-06-29T00:59:41.152Z,54.80
2018-06-29T01:00:46.407Z,54.90
2018-06-29T01:01:49.812Z,54.90
2018-06-29T01:02:53.227Z,55.00
2018-06-29T01:03:56.599Z,55.00
2018-06-29T01:04:59.983Z,55.20
2018-06-29T01:06:04.412Z,55.30
2018-06-29T01:07:07.810Z,55.30
2018-06-29T01:08:11.240Z,55.80
2018-06-29T01:09:14.575Z,55.40
2018-06-29T01:10:19.250Z,55.50
2018-06-29T01:11:23.647Z,55.60
2018-06-29T01:12:27.045Z,55.60
2018-06-29T01:13:30.432Z,55.80
2018-06-29T01:14:33.827Z,55.90
2018-06-29T01:15:39.274Z,56.00
2018-06-29T01:16:42.751Z,56.10
2018-06-29T01:17:46.135Z,56.30
2018-06-29T01:18:49.523Z,56.40
2018-06-29T01:19:52.907Z,56.50
2018-06-29T01:20:57.847Z,56.70
2018-06-29T01:22:01.292Z,56.70
2018-06-29T01:23:04.676Z,56.80
2018-06-29T01:25:12.799Z,57.10
2018-06-29T01:26:17.468Z,57.30
2018-06-29T01:27:20.887Z,57.40
2018-06-29T01:28:24.274Z,57.40
2018-06-29T01:29:27.691Z,57.60
2018-06-29T01:30:32.375Z,57.80
2018-06-29T01:31:35.787Z,57.90
2018-06-29T01:32:39.184Z,58.00
2018-06-29T01:33:42.600Z,58.10
2018-06-29T01:34:46.016Z,58.20
2018-06-29T01:35:51.332Z,58.30
2018-06-29T01:36:54.744Z,58.30
2018-06-29T01:37:58.139Z,58.40
2018-06-29T01:39:01.529Z,58.50
2018-06-29T01:40:05.959Z,58.50
2018-06-29T01:41:10.579Z,58.70
2018-06-29T01:46:27.966Z,59.10
2018-06-29T01:47:31.367Z,59.30
2018-06-29T01:48:37.625Z,59.40
2018-06-29T01:49:41.144Z,59.60
2018-06-29T01:50:45.652Z,59.70
2018-06-29T01:51:49.059Z,59.80
2018-06-29T01:52:52.435Z,60.00
2018-06-29T01:53:55.936Z,60.40
2018-06-29T01:54:59.319Z,60.60
2018-06-29T01:56:03.966Z,60.90
2018-06-29T01:57:07.378Z,61.10
2018-06-29T01:58:10.763Z,61.40
2018-06-29T01:59:14.167Z,61.70
2018-06-29T02:00:18.790Z,61.80
2018-06-29T02:01:23.138Z,62.10
2018-06-29T02:02:26.544Z,62.30
2018-06-29T02:03:29.927Z,62.60
2018-06-29T02:04:33.337Z,62.70
2018-06-29T02:05:38.112Z,63.00
2018-06-29T02:06:41.543Z,63.20
2018-06-29T02:07:44.943Z,63.50
2018-06-29T02:08:48.325Z,63.60
2018-06-29T02:09:51.775Z,63.70
2018-06-29T02:11:58.880Z,64.10
2018-06-29T02:13:02.268Z,64.20
2018-06-29T02:14:05.651Z,64.40
2018-06-29T02:15:10.056Z,64.50
2018-06-29T02:16:14.499Z,64.50
2018-06-29T02:17:17.927Z,65.30
2018-06-29T02:18:21.371Z,64.90
2018-06-29T02:19:24.751Z,65.00
2018-06-29T02:20:29.234Z,64.90
2018-06-29T02:21:32.647Z,65.10
2018-06-29T02:22:36.040Z,65.10
2018-06-29T02:23:39.423Z,65.20
2018-06-29T02:24:43.067Z,65.30
2018-06-29T02:27:53.323Z,65.60
2018-06-29T02:29:59.824Z,65.70
2018-06-29T02:31:04.928Z,65.80
2018-06-29T02:32:08.407Z,65.90
2018-06-29T02:33:11.775Z,66.00
2018-06-29T02:35:19.190Z,66.10
2018-06-29T02:36:23.383Z,66.10
2018-06-29T02:37:26.832Z,66.40
2018-06-29T02:38:30.268Z,66.60
2018-06-29T02:39:33.648Z,66.80
2018-06-29T02:41:40.991Z,67.20
2018-06-29T02:42:44.379Z,67.50
2018-06-29T02:43:47.764Z,67.80
2018-06-29T02:44:51.143Z,68.20
2018-06-29T02:45:55.571Z,68.40
2018-06-29T02:48:02.119Z,69.00
2018-06-29T02:49:05.517Z,69.10
2018-06-29T02:50:09.853Z,69.40
2018-06-29T02:51:14.245Z,69.70
2018-06-29T02:53:20.740Z,70.20
2018-06-29T02:54:24.118Z,70.40
2018-06-29T02:55:29.038Z,70.60
2018-06-29T02:56:32.432Z,70.80
2018-06-29T02:57:35.832Z,70.90
2018-06-29T02:58:39.204Z,71.20
2018-06-29T02:59:42.584Z,71.30
2018-06-29T03:00:46.888Z,71.30
2018-06-29T03:01:50.283Z,71.40
2018-06-29T03:02:53.688Z,71.30
2018-06-29T03:03:57.075Z,71.30
2018-06-29T03:05:00.477Z,71.30
2018-06-29T03:06:04.934Z,71.70
2018-06-29T03:07:08.340Z,71.80
2018-06-29T03:08:11.771Z,71.90
2018-06-29T03:09:15.175Z,72.30
2018-06-29T03:10:19.688Z,72.50
2018-06-29T03:11:24.144Z,72.80
2018-06-29T03:12:27.555Z,72.90
2018-06-29T03:13:30.956Z,73.20
2018-06-29T03:14:34.343Z,73.30
2018-06-29T03:15:38.736Z,73.50
2018-06-29T03:16:42.151Z,73.50
2018-06-29T03:17:45.547Z,73.80
2018-06-29T03:18:48.963Z,73.80
2018-06-29T03:19:52.607Z,74.00
2018-06-29T03:20:57.003Z,74.00
2018-06-29T03:22:00.412Z,74.20
2018-06-29T03:23:03.791Z,74.30
2018-06-29T03:24:07.220Z,74.40
2018-06-29T03:25:11.849Z,74.50
2018-06-29T03:26:16.520Z,74.60
2018-06-29T03:28:22.987Z,74.70
2018-06-29T03:29:26.383Z,74.50
2018-06-29T03:31:33.697Z,75.30
2018-06-29T03:32:37.071Z,75.40
2018-06-29T03:33:40.452Z,75.50
2018-06-29T03:34:44.319Z,75.60
2018-06-29T03:35:49.505Z,75.60
2018-06-29T03:36:52.899Z,75.70
2018-06-29T03:37:56.271Z,75.70
2018-06-29T03:38:59.663Z,75.70
2018-06-29T03:40:03.248Z,75.90
2018-06-29T03:41:07.395Z,76.00
2018-06-29T03:42:11.075Z,76.10
2018-06-29T03:43:14.480Z,76.10
2018-06-29T03:44:17.855Z,76.10
2018-06-29T03:45:22.411Z,76.10
2018-06-29T03:46:26.730Z,76.20
2018-06-29T03:47:30.145Z,76.30
2018-06-29T03:48:33.581Z,76.40
2018-06-29T03:49:37.052Z,76.40
2018-06-29T03:51:44.216Z,76.70
2018-06-29T03:52:47.619Z,76.80
2018-06-29T03:53:51.046Z,76.90
2018-06-29T03:54:54.429Z,77.00
2018-06-29T03:55:59.034Z,77.20
2018-06-29T03:57:02.443Z,77.30
2018-06-29T03:58:05.823Z,78.10
2018-06-29T03:59:09.199Z,77.70
2018-06-29T04:00:13.574Z,78.00
2018-06-29T04:02:20.935Z,78.30
2018-06-29T04:03:24.381Z,78.30
2018-06-29T04:04:27.713Z,78.40
2018-06-29T04:05:32.184Z,78.40
2018-06-29T04:06:35.631Z,78.50
2018-06-29T04:07:39.004Z,78.60
2018-06-29T04:08:42.390Z,78.70
2018-06-29T04:09:45.780Z,78.80
2018-06-29T04:10:50.175Z,79.00
2018-06-29T04:13:59.752Z,79.20
2018-06-29T04:15:03.683Z,79.20
2018-06-29T04:16:08.157Z,79.80
2018-06-29T04:17:11.586Z,79.40
2018-06-29T04:18:14.963Z,79.30
2018-06-29T04:19:18.335Z,79.40
2018-06-29T04:20:22.821Z,79.40
2018-06-29T04:21:27.443Z,80.10
2018-06-29T04:22:30.869Z,79.60
2018-06-29T04:23:34.299Z,79.80
2018-06-29T04:24:37.715Z,79.80
2018-06-29T04:27:48.101Z,80.00
2018-06-29T04:28:51.512Z,80.70
2018-06-29T04:29:54.883Z,80.90
2018-06-29T04:30:59.279Z,81.10
2018-06-29T04:32:02.708Z,81.20
2018-06-29T04:33:06.115Z,81.30
2018-06-29T04:34:09.495Z,81.40
2018-06-29T04:35:13.801Z,81.40
2018-06-29T04:40:31.961Z,81.90
2018-06-29T04:41:35.359Z,82.00
2018-06-29T04:42:38.751Z,82.20
2018-06-29T04:43:42.147Z,82.20
2018-06-29T04:44:45.571Z,82.30
2018-06-29T04:45:50.083Z,82.50
2018-06-29T04:46:53.528Z,82.50
2018-06-29T04:47:56.911Z,82.50
2018-06-29T04:50:04.015Z,82.60
2018-06-29T04:51:08.487Z,82.60
2018-06-29T04:52:11.887Z,82.70
2018-06-29T04:53:15.289Z,82.80
2018-06-29T04:54:18.699Z,83.00
2018-06-29T04:55:23.156Z,83.30
2018-06-29T04:57:30.257Z,83.50
2018-06-29T04:59:36.733Z,83.70
2018-06-29T05:00:41.184Z,83.80
2018-06-29T05:01:44.608Z,84.00
2018-06-29T05:03:51.231Z,84.00
2018-06-29T05:04:54.632Z,84.50
2018-06-29T05:05:59.072Z,84.10
2018-06-29T05:07:02.477Z,84.00
2018-06-29T05:08:05.855Z,84.10
2018-06-29T05:09:09.835Z,84.10
2018-06-29T05:11:18.242Z,84.80
2018-06-29T05:14:27.821Z,84.80
2018-06-29T05:15:32.507Z,84.80
2018-06-29T05:16:35.919Z,84.80
2018-06-29T05:17:39.327Z,85.10
2018-06-29T05:18:42.748Z,85.20
2018-06-29T05:19:46.181Z,85.20
2018-06-29T05:20:51.501Z,85.20
2018-06-29T05:21:55.117Z,85.30
2018-06-29T05:22:58.496Z,85.00
2018-06-29T05:24:01.872Z,84.90
2018-06-29T05:25:06.234Z,85.00
2018-06-29T05:26:10.864Z,85.00
2018-06-29T05:27:14.279Z,85.00
2018-06-29T05:28:17.653Z,85.10
2018-06-29T05:30:25.131Z,85.10
2018-06-29T05:31:29.311Z,85.10
2018-06-29T05:32:32.688Z,85.10
2018-06-29T05:33:36.071Z,85.30
2018-06-29T05:34:39.495Z,85.40
2018-06-29T05:35:44.041Z,85.50
2018-06-29T05:36:47.436Z,85.50
2018-06-29T05:37:50.808Z,85.70
2018-06-29T05:38:54.183Z,85.70
2018-06-29T05:42:04.360Z,86.10
2018-06-29T05:43:07.744Z,86.10
2018-06-29T05:44:11.111Z,86.10
2018-06-29T05:45:16.193Z,86.30
2018-06-29T05:46:20.733Z,86.40
2018-06-29T05:47:24.081Z,86.60
2018-06-29T05:48:27.457Z,86.70
2018-06-29T05:49:30.831Z,86.90
2018-06-29T05:50:35.397Z,87.10
2018-06-29T05:51:39.051Z,87.00
2018-06-29T05:52:42.453Z,87.10
2018-06-29T05:53:45.834Z,87.40
2018-06-29T05:54:49.207Z,87.70
2018-06-29T05:55:56.580Z,88.00
2018-06-29T05:57:00.012Z,88.10
2018-06-29T05:58:03.411Z,88.10
2018-06-29T05:59:06.820Z,87.80
2018-06-29T06:00:11.283Z,87.10
2018-06-29T06:01:15.795Z,85.50
2018-06-29T06:02:19.226Z,85.00
2018-06-29T06:03:22.620Z,84.30
2018-06-29T06:04:26.012Z,84.20
2018-06-29T06:05:30.434Z,84.00
2018-06-29T06:06:33.841Z,83.70
2018-06-29T06:07:37.219Z,83.30
2018-06-29T06:08:40.627Z,83.10
2018-06-29T06:09:43.999Z,83.10
2018-06-29T06:10:48.365Z,83.20
2018-06-29T06:11:51.815Z,83.00
2018-06-29T06:12:55.196Z,82.70
2018-06-29T06:13:58.607Z,82.70
2018-06-29T06:15:01.999Z,82.90
2018-06-29T06:17:09.227Z,82.70
2018-06-29T06:18:12.599Z,82.60
2018-06-29T06:19:27.475Z,82.60
2018-06-29T06:20:32.109Z,82.70
2018-06-29T06:22:38.602Z,82.50
2018-06-29T06:23:41.984Z,82.50
2018-06-29T06:24:45.384Z,82.30
2018-06-29T06:25:49.731Z,82.20
2018-06-29T06:26:53.183Z,82.10
2018-06-29T06:27:56.601Z,81.90
2018-06-29T06:28:59.980Z,81.80
2018-06-29T06:30:03.919Z,81.70
2018-06-29T06:31:08.548Z,81.60
2018-06-29T06:32:11.958Z,81.50
2018-06-29T06:33:15.395Z,81.10
2018-06-29T06:34:18.771Z,81.00
2018-06-29T06:35:24.446Z,81.00
2018-06-29T06:36:28.568Z,80.70
2018-06-29T06:37:31.947Z,80.70
2018-06-29T06:38:35.325Z,80.50
2018-06-29T06:39:38.725Z,80.30
2018-06-29T06:40:43.233Z,80.10
2018-06-29T06:41:46.620Z,80.10
2018-06-29T06:42:49.999Z,80.30
2018-06-29T06:43:53.647Z,80.70
2018-06-29T06:44:57.042Z,80.80
2018-06-29T06:46:01.401Z,80.80
2018-06-29T06:47:04.830Z,80.90
2018-06-29T06:48:08.285Z,80.80
2018-06-29T06:49:11.668Z,80.90
2018-06-29T06:50:16.033Z,80.90
2018-06-29T06:51:20.583Z,80.70
2018-06-29T06:52:23.979Z,80.30
2018-06-29T06:53:27.367Z,80.20
2018-06-29T06:54:30.736Z,80.20
2018-06-29T06:55:35.319Z,80.30
2018-06-29T06:56:38.751Z,80.30
2018-06-29T06:57:42.134Z,80.30
2018-06-29T06:58:45.515Z,80.20
2018-06-29T06:59:48.899Z,79.90
2018-06-29T07:00:54.083Z,79.70
2018-06-29T07:01:57.509Z,79.60
2018-06-29T07:03:00.899Z,79.60
2018-06-29T07:04:04.280Z,79.50
2018-06-29T07:05:08.564Z,79.50
2018-06-29T07:06:13.076Z,79.80
2018-06-29T07:07:16.483Z,80.00
2018-06-29T07:08:19.891Z,80.00
2018-06-29T07:09:23.269Z,80.00
2018-06-29T07:10:27.819Z,79.90
2018-06-29T07:11:31.259Z,79.80
2018-06-29T07:12:34.681Z,79.80
2018-06-29T07:13:38.269Z,79.70
2018-06-29T07:14:41.659Z,79.40
2018-06-29T07:15:46.160Z,78.70
2018-06-29T07:16:49.571Z,79.10
2018-06-29T07:17:52.974Z,79.10
2018-06-29T07:18:56.356Z,79.00
2018-06-29T07:19:59.742Z,79.00
2018-06-29T07:22:07.171Z,78.60
2018-06-29T07:23:10.571Z,78.30
2018-06-29T07:24:13.981Z,78.20
2018-06-29T07:25:18.489Z,78.00
2018-06-29T07:26:22.970Z,77.90
2018-06-29T07:27:26.581Z,77.90
2018-06-29T07:28:30.005Z,77.50
2018-06-29T07:30:37.594Z,77.60
2018-06-29T07:31:41.002Z,77.70
2018-06-29T07:32:44.531Z,77.10
2018-06-29T07:33:47.927Z,76.90
2018-06-29T07:34:51.311Z,76.80
2018-06-29T07:35:55.752Z,76.20
2018-06-29T07:40:10.836Z,74.80
2018-06-29T07:44:24.100Z,70.10
2018-06-29T07:45:28.678Z,69.20
2018-06-29T07:46:32.091Z,69.20
2018-06-29T07:47:35.510Z,69.20
2018-06-29T07:48:39.117Z,69.00
2018-06-29T07:49:42.539Z,68.60
2018-06-29T07:50:46.927Z,68.20
2018-06-29T07:51:50.319Z,68.00
2018-06-29T07:52:53.740Z,67.30
2018-06-29T07:53:57.079Z,66.80
2018-06-29T07:55:00.471Z,67.10
2018-06-29T07:56:05.753Z,65.90
2018-06-29T07:57:09.151Z,65.30
2018-06-29T07:58:12.609Z,64.80
2018-06-29T07:59:15.929Z,64.90
2018-06-29T08:00:21.346Z,64.80
2018-06-29T08:01:25.540Z,64.90
2018-06-29T08:02:28.951Z,65.00
2018-06-29T08:03:34.083Z,64.80
2018-06-29T08:04:37.463Z,64.60
2018-06-29T08:05:43.088Z,64.30
2018-06-29T08:06:46.488Z,63.70
2018-06-29T08:07:49.859Z,63.10
2018-06-29T08:08:53.238Z,62.50
2018-06-29T08:09:56.609Z,61.90
2018-06-29T08:11:01.223Z,61.70
2018-06-29T08:12:04.644Z,61.50
2018-06-29T08:13:08.031Z,61.50
2018-06-29T08:14:14.411Z,61.30
2018-06-29T08:15:18.935Z,60.60
2018-06-29T08:17:25.957Z,58.90
2018-06-29T08:18:29.335Z,58.50
2018-06-29T08:19:32.743Z,58.60
2018-06-29T08:20:37.373Z,58.60
2018-06-29T08:21:40.820Z,58.50
2018-06-29T08:22:44.256Z,58.50
2018-06-29T08:23:47.632Z,58.00
2018-06-29T08:25:02.301Z,57.80
2018-06-29T08:26:17.421Z,57.30
2018-06-29T08:27:20.839Z,57.00
2018-06-29T08:28:24.231Z,56.40
2018-06-29T08:29:27.621Z,55.90
2018-06-29T08:30:31.959Z,56.00
2018-06-29T08:31:35.379Z,55.90
2018-06-29T08:32:39.108Z,56.00
2018-06-29T08:33:42.507Z,56.00
2018-06-29T08:34:45.896Z,55.90
2018-06-29T08:35:50.645Z,55.70
2018-06-29T08:36:54.064Z,55.00
2018-06-29T08:37:57.479Z,54.80
2018-06-29T08:39:00.859Z,54.60
2018-06-29T08:40:05.634Z,54.40
2018-06-29T08:41:10.114Z,54.30
2018-06-29T08:42:13.859Z,54.10
2018-06-29T08:43:17.280Z,53.90
2018-06-29T08:44:20.685Z,54.00
2018-06-29T08:46:29.493Z,53.60
2018-06-29T08:47:32.860Z,53.60
2018-06-29T08:48:36.444Z,53.40
2018-06-29T08:49:39.972Z,53.10
2018-06-29T08:50:44.366Z,53.10
2018-06-29T08:51:47.777Z,53.00
2018-06-29T08:52:51.155Z,52.90
2018-06-29T08:53:54.560Z,52.60
2018-06-29T08:55:00.876Z,52.70
2018-06-29T08:56:05.259Z,52.60
2018-06-29T08:57:08.868Z,52.20
2018-06-29T08:58:12.251Z,52.30
2018-06-29T08:59:15.656Z,52.10
2018-06-29T09:00:20.133Z,52.00
2018-06-29T09:01:24.172Z,52.00
2018-06-29T09:02:27.625Z,52.20
2018-06-29T09:03:30.974Z,51.60
2018-06-29T09:04:34.500Z,51.40
2018-06-29T09:05:38.875Z,51.40
2018-06-29T09:06:42.318Z,52.00
2018-06-29T09:07:45.711Z,51.10
2018-06-29T09:10:56.425Z,51.10
2018-06-29T09:11:59.862Z,51.00
2018-06-29T09:13:03.312Z,50.70
2018-06-29T09:14:06.695Z,50.70
2018-06-29T09:15:11.127Z,50.40
2018-06-29T09:17:18.403Z,50.20
2018-06-29T09:18:21.791Z,50.20
2018-06-29T09:19:25.189Z,50.30
2018-06-29T09:20:29.576Z,50.20
2018-06-29T09:21:32.972Z,50.30
2018-06-29T09:22:36.340Z,50.40
2018-06-29T09:23:39.715Z,50.20
2018-06-29T09:24:43.090Z,50.20
2018-06-29T09:25:47.608Z,50.30
2018-06-29T09:26:51.036Z,50.40
2018-06-29T09:27:54.425Z,50.10
2018-06-29T09:28:57.835Z,49.80
2018-06-29T09:32:08.319Z,49.80
2018-06-29T09:33:11.691Z,49.90
2018-06-29T09:34:15.076Z,50.10
2018-06-29T09:35:19.532Z,50.20
2018-06-29T09:36:23.930Z,50.30
2018-06-29T09:38:30.597Z,50.20
2018-06-29T09:39:33.981Z,49.60
2018-06-29T09:40:38.555Z,49.50
2018-06-29T09:41:42.531Z,49.20
2018-06-29T09:42:45.939Z,49.10
2018-06-29T09:44:52.991Z,49.30
2018-06-29T09:45:57.473Z,49.10
2018-06-29T09:47:00.903Z,48.90
2018-06-29T09:48:04.366Z,48.90
2018-06-29T09:49:07.675Z,48.50
2018-06-29T09:50:12.188Z,48.30
2018-06-29T09:51:16.821Z,48.50
2018-06-29T09:52:20.255Z,48.50
2018-06-29T09:53:23.634Z,48.40
2018-06-29T09:54:27.006Z,48.50
2018-06-29T09:55:31.486Z,48.00
2018-06-29T09:56:34.908Z,47.80
2018-06-29T09:57:38.310Z,47.70
2018-06-29T09:58:42.012Z,47.70
2018-06-29T09:59:45.703Z,47.80
2018-06-29T10:00:55.410Z,47.70
2018-06-29T10:01:53.614Z,47.90
2018-06-29T10:03:03.648Z,47.80
2018-06-29T10:04:07.027Z,47.70
2018-06-29T10:05:11.482Z,47.80
2018-06-29T10:06:16.000Z,47.90
2018-06-29T10:08:22.499Z,47.30
2018-06-29T10:09:25.897Z,47.40
2018-06-29T10:10:30.401Z,47.40
2018-06-29T10:11:33.815Z,47.40
2018-06-29T10:12:37.195Z,47.60
2018-06-29T10:13:40.612Z,47.40
2018-06-29T10:14:43.987Z,47.40
2018-06-29T10:15:48.460Z,47.90
2018-06-29T10:16:51.875Z,47.50
2018-06-29T10:17:55.255Z,47.40
2018-06-29T10:18:58.659Z,47.10
2018-06-29T10:20:02.128Z,46.80
2018-06-29T10:21:06.611Z,46.90
2018-06-29T10:22:10.081Z,47.20
2018-06-29T10:23:13.463Z,47.00
2018-06-29T10:24:16.908Z,46.60
2018-06-29T10:25:21.571Z,46.40
2018-06-29T10:26:26.223Z,46.30
2018-06-29T10:27:29.668Z,46.30
2018-06-29T10:28:33.052Z,46.40
2018-06-29T10:29:36.467Z,47.00
2018-06-29T10:30:41.288Z,46.60
2018-06-29T10:31:45.375Z,46.50
2018-06-29T10:32:48.767Z,46.60
2018-06-29T10:33:52.167Z,46.70
2018-06-29T10:34:55.596Z,46.80
2018-06-29T10:36:00.173Z,46.30
2018-06-29T10:38:06.768Z,46.50
2018-06-29T10:39:13.943Z,45.90
2018-06-29T10:40:24.661Z,45.50
2018-06-29T10:41:28.839Z,45.50
2018-06-29T10:42:32.203Z,45.50
2018-06-29T10:45:42.942Z,45.80
2018-06-29T10:48:52.535Z,45.20
2018-06-29T10:51:00.209Z,44.50
2018-06-29T10:52:03.623Z,44.80
2018-06-29T10:53:07.021Z,45.10
2018-06-29T10:54:10.406Z,45.40
2018-06-29T10:55:14.881Z,45.50
2018-06-29T10:56:20.444Z,45.10
2018-06-29T10:57:24.371Z,44.90
2018-06-29T10:58:27.747Z,44.70
2018-06-29T10:59:31.125Z,44.70
2018-06-29T11:00:35.602Z,44.80
2018-06-29T11:01:45.535Z,44.60
2018-06-29T11:04:55.091Z,44.20
2018-06-29T11:06:00.418Z,44.20
2018-06-29T11:07:03.853Z,44.10
2018-06-29T11:08:07.232Z,43.50
2018-06-29T11:09:11.048Z,43.10
2018-06-29T11:10:15.580Z,43.20
2018-06-29T11:11:19.930Z,43.20
2018-06-29T11:12:23.344Z,42.90
2018-06-29T11:13:26.727Z,42.90
2018-06-29T11:14:30.107Z,42.70
2018-06-29T11:15:35.211Z,42.80
2018-06-29T11:16:38.619Z,43.00
2018-06-29T11:17:46.508Z,43.00
2018-06-29T11:18:49.891Z,42.70
2018-06-29T11:19:53.811Z,42.80
2018-06-29T11:20:58.691Z,42.70
2018-06-29T11:22:02.108Z,42.50
2018-06-29T11:23:05.528Z,41.50
2018-06-29T11:24:08.907Z,41.20
2018-06-29T11:25:13.464Z,40.70
2018-06-29T11:26:18.458Z,40.80
2018-06-29T11:27:21.873Z,40.80
2018-06-29T11:28:25.298Z,41.10
2018-06-29T11:29:28.683Z,41.20
2018-06-29T11:30:33.119Z,41.20
2018-06-29T11:31:36.551Z,41.20
2018-06-29T11:32:39.940Z,41.30
2018-06-29T11:33:43.336Z,41.20
2018-06-29T11:34:46.721Z,41.20
2018-06-29T11:35:51.182Z,41.40
2018-06-29T11:36:54.759Z,41.40
2018-06-29T11:40:05.320Z,41.40
2018-06-29T11:42:12.611Z,40.80
2018-06-29T11:43:16.004Z,40.90
2018-06-29T11:44:19.407Z,41.40
2018-06-29T11:46:28.663Z,40.90
2018-06-29T11:47:32.039Z,40.20
2018-06-29T11:48:35.463Z,39.90
2018-06-29T11:49:38.834Z,39.40
2018-06-29T11:50:43.794Z,39.10
2018-06-29T11:51:47.207Z,39.00
2018-06-29T11:52:50.591Z,39.10
2018-06-29T11:53:53.987Z,38.80
2018-06-29T11:56:01.563Z,38.90
2018-06-29T11:57:05.176Z,38.90
2018-06-29T11:58:08.559Z,38.70
2018-06-29T11:59:11.931Z,38.80
2018-06-29T12:00:16.281Z,38.70
2018-06-29T12:01:20.709Z,38.90
2018-06-29T12:03:27.216Z,38.80
2018-06-29T12:04:30.587Z,38.90
2018-06-29T12:05:35.072Z,39.10
2018-06-29T12:06:38.466Z,39.00
2018-06-29T12:07:41.851Z,39.00
2018-06-29T12:08:45.231Z,39.00
2018-06-29T12:09:48.607Z,38.70
2018-06-29T12:10:53.024Z,38.30
2018-06-29T12:11:56.423Z,38.20
2018-06-29T12:12:59.829Z,38.40
2018-06-29T12:14:03.417Z,38.50
2018-06-29T12:15:08.723Z,38.90
2018-06-29T12:16:13.121Z,39.20
2018-06-29T12:17:16.527Z,39.40
2018-06-29T12:18:19.903Z,39.60
2018-06-29T12:19:23.299Z,39.60
2018-06-29T12:20:27.828Z,39.70
2018-06-29T12:22:34.993Z,39.80
2018-06-29T12:23:38.375Z,39.40
2018-06-29T12:24:41.752Z,39.20
2018-06-29T12:25:46.229Z,39.80
2018-06-29T12:26:49.655Z,39.40
2018-06-29T12:27:53.047Z,39.60
2018-06-29T12:28:56.443Z,39.80
2018-06-29T12:29:59.827Z,40.10
2018-06-29T12:31:04.269Z,40.30
2018-06-29T12:32:08.207Z,40.30
2018-06-29T12:33:11.594Z,40.20
2018-06-29T12:34:14.983Z,40.10
2018-06-29T12:35:19.396Z,40.10
2018-06-29T12:36:23.501Z,39.90
2018-06-29T12:40:37.952Z,39.90
2018-06-29T12:41:41.429Z,39.50
2018-06-29T12:42:45.108Z,39.60
2018-06-29T12:43:48.327Z,39.70
2018-06-29T12:44:51.718Z,39.80
2018-06-29T12:45:55.957Z,40.10
2018-06-29T12:46:59.376Z,40.10
2018-06-29T12:48:02.787Z,40.10
2018-06-29T12:49:06.203Z,40.20
2018-06-29T12:50:11.115Z,40.30
2018-06-29T12:51:15.553Z,40.30
2018-06-29T12:52:18.996Z,39.90
2018-06-29T12:53:22.399Z,39.50
2018-06-29T12:54:25.815Z,39.50
2018-06-29T12:57:36.360Z,39.80
2018-06-29T12:58:39.927Z,40.10
2018-06-29T12:59:43.267Z,40.00
2018-06-29T13:00:48.169Z,40.10
2018-06-29T13:01:51.590Z,39.90
2018-06-29T13:02:54.964Z,38.90
2018-06-29T13:03:58.367Z,38.70
2018-06-29T13:05:01.753Z,38.30
2018-06-29T13:06:06.237Z,38.30
2018-06-29T13:07:09.675Z,37.80
2018-06-29T13:08:13.049Z,37.60
2018-06-29T13:09:16.455Z,37.70
2018-06-29T13:10:20.875Z,37.90
2018-06-29T13:12:27.468Z,38.40
2018-06-29T13:13:30.856Z,38.90
2018-06-29T13:14:34.251Z,39.10
2018-06-29T13:15:38.753Z,39.20
2018-06-29T13:16:42.171Z,39.30
2018-06-29T13:17:45.581Z,39.10
2018-06-29T13:18:49.003Z,38.90
2018-06-29T13:19:52.407Z,38.90
2018-06-29T13:20:57.885Z,38.70
2018-06-29T13:22:01.289Z,38.60
2018-06-29T13:23:04.671Z,38.60
2018-06-29T13:24:08.098Z,38.50
2018-06-29T13:25:12.719Z,38.60
2018-06-29T13:26:17.190Z,38.30
2018-06-29T13:27:20.579Z,38.40
2018-06-29T13:28:23.994Z,38.40
2018-06-29T13:29:27.382Z,38.30
2018-06-29T13:30:32.757Z,38.30
2018-06-29T13:31:36.174Z,38.20
2018-06-29T13:32:39.563Z,38.40
2018-06-29T13:33:43.007Z,38.40
2018-06-29T13:34:46.351Z,38.60
2018-06-29T13:35:50.822Z,38.60
2018-06-29T13:37:57.595Z,39.30
2018-06-29T13:39:00.971Z,39.00
2018-06-29T13:40:05.871Z,39.00
2018-06-29T13:41:10.388Z,39.10
2018-06-29T13:42:13.779Z,38.60
2018-06-29T13:43:17.177Z,38.40
2018-06-29T13:44:20.680Z,38.20
2018-06-29T13:45:25.044Z,38.00
2018-06-29T13:46:30.168Z,37.80
2018-06-29T13:47:33.689Z,37.50
2018-06-29T13:48:37.071Z,37.60
2018-06-29T13:49:40.459Z,37.70
2018-06-29T13:50:44.902Z,37.80
2018-06-29T13:51:48.339Z,38.10
2018-06-29T13:52:51.722Z,38.30
2018-06-29T13:53:55.094Z,38.30
2018-06-29T13:54:58.556Z,38.20
2018-06-29T13:56:02.388Z,37.80
2018-06-29T13:57:05.791Z,38.00
2018-06-29T13:58:09.167Z,37.80
2018-06-29T13:59:12.555Z,37.40
2018-06-29T14:00:17.090Z,37.50
2018-06-29T14:01:21.544Z,37.50
2018-06-29T14:02:25.051Z,37.60
2018-06-29T14:03:28.393Z,37.40
2018-06-29T14:04:31.772Z,37.10
2018-06-29T14:05:36.191Z,37.10
2018-06-29T14:06:39.624Z,37.20
2018-06-29T14:07:43.013Z,37.10
2018-06-29T14:08:46.387Z,37.10
2018-06-29T14:09:49.782Z,37.30
2018-06-29T14:10:54.618Z,37.30
2018-06-29T14:11:58.043Z,37.30
2018-06-29T14:13:01.539Z,37.20
2018-06-29T14:14:04.915Z,37.10
2018-06-29T14:15:09.314Z,37.20
2018-06-29T14:17:16.455Z,37.10
2018-06-29T14:18:19.856Z,37.10
2018-06-29T14:19:23.236Z,37.20
2018-06-29T14:20:27.738Z,37.10
2018-06-29T14:21:31.537Z,36.60
2018-06-29T14:22:34.914Z,36.50
2018-06-29T14:23:38.299Z,36.20
2018-06-29T14:24:41.698Z,36.20
2018-06-29T14:25:46.038Z,36.30
2018-06-29T14:26:49.452Z,36.30
2018-06-29T14:27:52.855Z,36.40
2018-06-29T14:28:56.308Z,36.40
2018-06-29T14:29:59.783Z,36.50
2018-06-29T14:31:04.127Z,36.60
2018-06-29T14:32:07.547Z,36.60
2018-06-29T14:33:10.972Z,37.30
2018-06-29T14:34:14.360Z,36.90
2018-06-29T14:35:18.780Z,37.00
2018-06-29T14:36:23.076Z,37.00
2018-06-29T14:37:26.468Z,37.00
2018-06-29T14:38:29.907Z,37.10
2018-06-29T14:39:33.340Z,36.40
2018-06-29T14:40:38.753Z,35.90
2018-06-29T14:41:42.148Z,35.40
2018-06-29T14:42:45.515Z,35.10
2018-06-29T14:43:48.907Z,34.80
2018-06-29T14:44:52.283Z,34.90
2018-06-29T14:45:56.734Z,34.90
2018-06-29T14:47:00.125Z,35.00
2018-06-29T14:48:03.509Z,35.10
2018-06-29T14:49:06.984Z,34.70
2018-06-29T14:50:12.183Z,34.60
2018-06-29T14:51:16.791Z,34.60
2018-06-29T14:52:20.191Z,34.30
2018-06-29T14:53:23.567Z,34.10
2018-06-29T14:54:26.963Z,34.10
2018-06-29T14:55:31.399Z,34.00
2018-06-29T14:59:44.069Z,34.30
2018-06-29T15:00:48.585Z,34.40
2018-06-29T15:01:51.975Z,34.50
2018-06-29T15:02:55.413Z,34.60
2018-06-29T15:03:58.735Z,34.70
2018-06-29T15:05:03.181Z,34.80
2018-06-29T15:06:07.569Z,34.30
2018-06-29T15:07:10.968Z,34.20
2018-06-29T15:08:14.339Z,34.10
2018-06-29T15:09:17.727Z,34.20
2018-06-29T15:10:22.343Z,34.30
2018-06-29T15:11:27.127Z,34.40
2018-06-29T15:12:30.520Z,34.50